sensor_id;sensor_type;location;lat;lon;timestamp;pressure;altitude;pressure_sealevel;temperature;humidity
64211;BME280;73293;48.538;14.354;2024-01-15T00:00:16;92307.95;;;-6.12;96.53
64211;BME280;73293;48.538;14.354;2024-01-15T00:01:12;92307.68;;;-6.12;96.38
64211;BME280;73293;48.538;14.354;2024-01-15T00:02:02;92310.41;;;-6.15;96.51
64211;BME280;73293;48.538;14.354;2024-01-15T00:02:36;92309.85;;;-6.16;96.30
64211;BME280;73293;48.538;14.354;2024-01-15T00:03:46;92306.62;;;-6.08;96.67
64211;BME280;73293;48.538;14.354;2024-01-15T00:04:20;92304.88;;;-6.12;96.97
64211;BME280;73293;48.538;14.354;2024-01-15T00:04:54;92298.66;;;-6.15;97.66
64211;BME280;73293;48.538;14.354;2024-01-15T00:05:28;92301.20;;;-6.07;97.69
64211;BME280;73293;48.538;14.354;2024-01-15T00:06:02;92301.19;;;-6.04;97.81
64211;BME280;73293;48.538;14.354;2024-01-15T00:06:36;92301.05;;;-6.03;97.59
64211;BME280;73293;48.538;14.354;2024-01-15T00:07:28;92295.77;;;-5.97;96.99
64211;BME280;73293;48.538;14.354;2024-01-15T00:08:03;92297.34;;;-6.03;96.30
64211;BME280;73293;48.538;14.354;2024-01-15T00:08:37;92293.46;;;-6.01;96.34
64211;BME280;73293;48.538;14.354;2024-01-15T00:09:11;92292.50;;;-5.98;96.57
64211;BME280;73293;48.538;14.354;2024-01-15T00:09:52;92287.74;;;-6.02;96.27
64211;BME280;73293;48.538;14.354;2024-01-15T00:10:26;92290.80;;;-6.04;96.71
64211;BME280;73293;48.538;14.354;2024-01-15T00:11:14;92286.86;;;-6.01;96.94
64211;BME280;73293;48.538;14.354;2024-01-15T00:11:51;92286.44;;;-6.03;97.12
64211;BME280;73293;48.538;14.354;2024-01-15T00:12:25;92280.32;;;-6.01;97.01
64211;BME280;73293;48.538;14.354;2024-01-15T00:12:59;92284.73;;;-6.02;96.60
64211;BME280;73293;48.538;14.354;2024-01-15T00:13:33;92284.77;;;-6.04;96.21
64211;BME280;73293;48.538;14.354;2024-01-15T00:14:08;92282.33;;;-6.05;95.73
64211;BME280;73293;48.538;14.354;2024-01-15T00:14:54;92279.08;;;-6.04;95.85
64211;BME280;73293;48.538;14.354;2024-01-15T00:15:27;92281.44;;;-6.10;96.28
64211;BME280;73293;48.538;14.354;2024-01-15T00:16:02;92277.64;;;-6.08;96.60
64211;BME280;73293;48.538;14.354;2024-01-15T00:16:36;92278.66;;;-6.05;96.53
64211;BME280;73293;48.538;14.354;2024-01-15T00:17:10;92273.03;;;-6.07;96.56
64211;BME280;73293;48.538;14.354;2024-01-15T00:17:44;92276.66;;;-6.02;96.56
64211;BME280;73293;48.538;14.354;2024-01-15T00:18:35;92271.67;;;-5.98;96.55
64211;BME280;73293;48.538;14.354;2024-01-15T00:19:10;92275.37;;;-5.97;96.53
64211;BME280;73293;48.538;14.354;2024-01-15T00:19:45;92274.89;;;-5.95;96.21
64211;BME280;73293;48.538;14.354;2024-01-15T00:20:20;92272.96;;;-5.94;95.90
64211;BME280;73293;48.538;14.354;2024-01-15T00:20:54;92274.53;;;-5.95;95.36
64211;BME280;73293;48.538;14.354;2024-01-15T00:21:27;92271.27;;;-5.99;95.37
64211;BME280;73293;48.538;14.354;2024-01-15T00:22:17;92265.27;;;-6.00;95.27
64211;BME280;73293;48.538;14.354;2024-01-15T00:22:51;92266.16;;;-6.06;94.83
64211;BME280;73293;48.538;14.354;2024-01-15T00:23:25;92263.58;;;-6.09;95.14
64211;BME280;73293;48.538;14.354;2024-01-15T00:23:58;92265.40;;;-6.12;95.20
64211;BME280;73293;48.538;14.354;2024-01-15T00:24:31;92261.70;;;-6.13;95.49
64211;BME280;73293;48.538;14.354;2024-01-15T00:25:07;92261.20;;;-6.12;94.69
64211;BME280;73293;48.538;14.354;2024-01-15T00:25:58;92254.13;;;-6.11;94.87
64211;BME280;73293;48.538;14.354;2024-01-15T00:26:32;92257.47;;;-6.07;95.52
64211;BME280;73293;48.538;14.354;2024-01-15T00:27:05;92258.03;;;-6.09;95.70
64211;BME280;73293;48.538;14.354;2024-01-15T00:27:39;92256.88;;;-6.05;96.78
64211;BME280;73293;48.538;14.354;2024-01-15T00:28:13;92249.89;;;-6.08;96.67
64211;BME280;73293;48.538;14.354;2024-01-15T00:28:46;92253.82;;;-6.04;96.61
64211;BME280;73293;48.538;14.354;2024-01-15T00:29:38;92250.39;;;-6.05;97.13
64211;BME280;73293;48.538;14.354;2024-01-15T00:30:12;92251.02;;;-6.01;97.01
64211;BME280;73293;48.538;14.354;2024-01-15T00:30:46;92253.57;;;-6.00;96.92
64211;BME280;73293;48.538;14.354;2024-01-15T00:31:20;92254.43;;;-5.90;96.58
64211;BME280;73293;48.538;14.354;2024-01-15T00:31:54;92256.35;;;-5.97;96.68
64211;BME280;73293;48.538;14.354;2024-01-15T00:32:28;92258.13;;;-5.96;96.74
64211;BME280;73293;48.538;14.354;2024-01-15T00:33:18;92255.25;;;-5.95;96.35
64211;BME280;73293;48.538;14.354;2024-01-15T00:33:52;92256.63;;;-6.02;95.81
64211;BME280;73293;48.538;14.354;2024-01-15T00:34:26;92255.50;;;-6.00;96.02
64211;BME280;73293;48.538;14.354;2024-01-15T00:34:59;92258.36;;;-6.02;96.28
64211;BME280;73293;48.538;14.354;2024-01-15T00:35:33;92257.30;;;-5.97;96.22
64211;BME280;73293;48.538;14.354;2024-01-15T00:36:07;92256.13;;;-6.01;96.01
64211;BME280;73293;48.538;14.354;2024-01-15T00:37:01;92252.03;;;-5.95;96.05
64211;BME280;73293;48.538;14.354;2024-01-15T00:37:34;92256.94;;;-5.98;96.06
64211;BME280;73293;48.538;14.354;2024-01-15T00:38:08;92257.09;;;-6.03;95.80
64211;BME280;73293;48.538;14.354;2024-01-15T00:38:42;92258.54;;;-6.04;96.12
64211;BME280;73293;48.538;14.354;2024-01-15T00:39:17;92255.33;;;-6.03;96.86
64211;BME280;73293;48.538;14.354;2024-01-15T00:39:51;92257.11;;;-6.02;96.42
64211;BME280;73293;48.538;14.354;2024-01-15T00:40:38;92249.67;;;-6.00;96.51
64211;BME280;73293;48.538;14.354;2024-01-15T00:41:13;92253.45;;;-6.00;96.65
64211;BME280;73293;48.538;14.354;2024-01-15T00:41:46;92254.76;;;-6.01;96.74
64211;BME280;73293;48.538;14.354;2024-01-15T00:42:20;92253.94;;;-5.98;96.98
64211;BME280;73293;48.538;14.354;2024-01-15T00:42:54;92253.23;;;-5.98;97.24
64211;BME280;73293;48.538;14.354;2024-01-15T00:43:28;92250.17;;;-5.93;97.47
64211;BME280;73293;48.538;14.354;2024-01-15T00:44:18;92253.08;;;-5.90;97.04
64211;BME280;73293;48.538;14.354;2024-01-15T00:44:53;92244.88;;;-5.97;96.79
64211;BME280;73293;48.538;14.354;2024-01-15T00:45:27;92251.50;;;-5.98;96.98
64211;BME280;73293;48.538;14.354;2024-01-15T00:46:04;92249.03;;;-5.97;97.02
64211;BME280;73293;48.538;14.354;2024-01-15T00:46:44;92248.96;;;-5.97;97.13
64211;BME280;73293;48.538;14.354;2024-01-15T00:47:18;92246.38;;;-5.76;96.73
64211;BME280;73293;48.538;14.354;2024-01-15T00:48:00;92248.21;;;-5.79;96.13
64211;BME280;73293;48.538;14.354;2024-01-15T00:48:34;92238.20;;;-5.92;95.77
64211;BME280;73293;48.538;14.354;2024-01-15T00:49:08;92237.83;;;-5.86;96.11
64211;BME280;73293;48.538;14.354;2024-01-15T00:49:42;92237.27;;;-5.78;95.88
64211;BME280;73293;48.538;14.354;2024-01-15T00:50:17;92236.67;;;-5.79;95.61
64211;BME280;73293;48.538;14.354;2024-01-15T00:50:50;92238.41;;;-5.86;95.78
64211;BME280;73293;48.538;14.354;2024-01-15T00:51:42;92240.64;;;-5.90;95.69
64211;BME280;73293;48.538;14.354;2024-01-15T00:52:16;92241.16;;;-5.97;95.23
64211;BME280;73293;48.538;14.354;2024-01-15T00:52:49;92238.71;;;-5.92;95.40
64211;BME280;73293;48.538;14.354;2024-01-15T00:53:23;92242.92;;;-5.92;95.46
64211;BME280;73293;48.538;14.354;2024-01-15T00:53:57;92248.91;;;-6.02;95.02
64211;BME280;73293;48.538;14.354;2024-01-15T00:54:30;92251.96;;;-6.07;95.14
64211;BME280;73293;48.538;14.354;2024-01-15T00:55:23;92249.25;;;-6.10;95.31
64211;BME280;73293;48.538;14.354;2024-01-15T00:55:57;92244.77;;;-6.19;95.23
64211;BME280;73293;48.538;14.354;2024-01-15T00:56:30;92250.67;;;-6.22;94.67
64211;BME280;73293;48.538;14.354;2024-01-15T00:57:04;92245.15;;;-6.17;95.25
64211;BME280;73293;48.538;14.354;2024-01-15T00:57:39;92246.09;;;-6.13;95.55
64211;BME280;73293;48.538;14.354;2024-01-15T00:58:13;92240.13;;;-6.12;95.64
64211;BME280;73293;48.538;14.354;2024-01-15T00:59:04;92232.42;;;-5.98;95.34
64211;BME280;73293;48.538;14.354;2024-01-15T00:59:44;92232.33;;;-6.01;95.26
64211;BME280;73293;48.538;14.354;2024-01-15T01:00:20;92242.79;;;-6.06;95.32
64211;BME280;73293;48.538;14.354;2024-01-15T01:00:54;92238.84;;;-6.04;95.57
64211;BME280;73293;48.538;14.354;2024-01-15T01:01:29;92242.23;;;-5.88;95.27
64211;BME280;73293;48.538;14.354;2024-01-15T01:02:41;92236.39;;;-5.87;94.91
64211;BME280;73293;48.538;14.354;2024-01-15T01:03:15;92230.27;;;-5.90;94.90
64211;BME280;73293;48.538;14.354;2024-01-15T01:03:50;92233.02;;;-5.96;95.15
64211;BME280;73293;48.538;14.354;2024-01-15T01:04:23;92227.40;;;-5.93;95.07
64211;BME280;73293;48.538;14.354;2024-01-15T01:04:57;92226.04;;;-5.93;95.13
64211;BME280;73293;48.538;14.354;2024-01-15T01:05:31;92226.73;;;-5.85;95.25
64211;BME280;73293;48.538;14.354;2024-01-15T01:06:23;92223.80;;;-5.75;95.09
64211;BME280;73293;48.538;14.354;2024-01-15T01:06:57;92228.55;;;-5.84;94.85
64211;BME280;73293;48.538;14.354;2024-01-15T01:07:32;92231.73;;;-5.94;94.98
64211;BME280;73293;48.538;14.354;2024-01-15T01:08:06;92228.02;;;-5.98;95.27
64211;BME280;73293;48.538;14.354;2024-01-15T01:08:40;92222.52;;;-5.95;95.46
64211;BME280;73293;48.538;14.354;2024-01-15T01:09:14;92222.92;;;-6.01;95.47
64211;BME280;73293;48.538;14.354;2024-01-15T01:10:04;92218.23;;;-6.02;95.84
64211;BME280;73293;48.538;14.354;2024-01-15T01:10:38;92220.30;;;-6.03;95.56
64211;BME280;73293;48.538;14.354;2024-01-15T01:11:15;92222.94;;;-6.04;95.57
64211;BME280;73293;48.538;14.354;2024-01-15T01:11:50;92221.98;;;-6.09;95.16
64211;BME280;73293;48.538;14.354;2024-01-15T01:12:24;92219.12;;;-6.10;94.85
64211;BME280;73293;48.538;14.354;2024-01-15T01:12:58;92227.38;;;-6.17;95.19
64211;BME280;73293;48.538;14.354;2024-01-15T01:13:45;92226.64;;;-6.10;95.62
64211;BME280;73293;48.538;14.354;2024-01-15T01:14:19;92227.33;;;-6.19;94.97
64211;BME280;73293;48.538;14.354;2024-01-15T01:14:53;92229.30;;;-6.18;94.41
64211;BME280;73293;48.538;14.354;2024-01-15T01:15:27;92229.34;;;-6.17;94.87
64211;BME280;73293;48.538;14.354;2024-01-15T01:16:03;92233.20;;;-6.17;95.42
64211;BME280;73293;48.538;14.354;2024-01-15T01:16:36;92230.55;;;-6.13;95.59
64211;BME280;73293;48.538;14.354;2024-01-15T01:17:25;92228.95;;;-6.11;95.25
64211;BME280;73293;48.538;14.354;2024-01-15T01:17:59;92228.39;;;-6.14;95.47
64211;BME280;73293;48.538;14.354;2024-01-15T01:18:34;92227.74;;;-6.10;95.63
64211;BME280;73293;48.538;14.354;2024-01-15T01:19:08;92233.18;;;-6.08;95.21
64211;BME280;73293;48.538;14.354;2024-01-15T01:19:42;92231.31;;;-6.10;95.12
64211;BME280;73293;48.538;14.354;2024-01-15T01:20:17;92227.48;;;-6.13;95.68
64211;BME280;73293;48.538;14.354;2024-01-15T01:21:07;92222.67;;;-5.96;94.99
64211;BME280;73293;48.538;14.354;2024-01-15T01:21:40;92219.42;;;-6.00;95.25
64211;BME280;73293;48.538;14.354;2024-01-15T01:22:14;92216.36;;;-5.92;95.29
64211;BME280;73293;48.538;14.354;2024-01-15T01:22:50;92217.25;;;-5.85;95.09
64211;BME280;73293;48.538;14.354;2024-01-15T01:23:24;92215.74;;;-5.97;95.02
64211;BME280;73293;48.538;14.354;2024-01-15T01:23:58;92211.57;;;-6.04;95.18
64211;BME280;73293;48.538;14.354;2024-01-15T01:24:48;92211.80;;;-5.98;95.65
64211;BME280;73293;48.538;14.354;2024-01-15T01:25:21;92211.04;;;-5.84;95.16
64211;BME280;73293;48.538;14.354;2024-01-15T01:25:56;92210.20;;;-5.96;94.87
64211;BME280;73293;48.538;14.354;2024-01-15T01:26:30;92207.16;;;-5.99;95.27
64211;BME280;73293;48.538;14.354;2024-01-15T01:27:04;92206.42;;;-6.04;95.52
64211;BME280;73293;48.538;14.354;2024-01-15T01:27:38;92203.22;;;-6.04;96.06
64211;BME280;73293;48.538;14.354;2024-01-15T01:28:29;92198.86;;;-5.98;95.92
64211;BME280;73293;48.538;14.354;2024-01-15T01:29:03;92202.63;;;-5.92;95.44
64211;BME280;73293;48.538;14.354;2024-01-15T01:29:38;92201.30;;;-5.97;95.49
64211;BME280;73293;48.538;14.354;2024-01-15T01:30:12;92193.48;;;-5.99;95.38
64211;BME280;73293;48.538;14.354;2024-01-15T01:30:50;92195.39;;;-5.93;96.22
64211;BME280;73293;48.538;14.354;2024-01-15T01:31:24;92197.89;;;-5.89;96.05
64211;BME280;73293;48.538;14.354;2024-01-15T01:32:11;92195.20;;;-5.89;96.27
64211;BME280;73293;48.538;14.354;2024-01-15T01:32:45;92197.98;;;-5.86;95.93
64211;BME280;73293;48.538;14.354;2024-01-15T01:33:19;92194.95;;;-5.82;95.52
64211;BME280;73293;48.538;14.354;2024-01-15T01:33:53;92198.84;;;-5.90;95.80
64211;BME280;73293;48.538;14.354;2024-01-15T01:34:27;92193.74;;;-5.86;95.97
64211;BME280;73293;48.538;14.354;2024-01-15T01:35:06;92199.85;;;-5.89;96.10
64211;BME280;73293;48.538;14.354;2024-01-15T01:35:53;92196.86;;;-5.85;95.84
64211;BME280;73293;48.538;14.354;2024-01-15T01:36:26;92191.54;;;-5.92;95.88
64211;BME280;73293;48.538;14.354;2024-01-15T01:37:01;92196.06;;;-5.92;96.15
64211;BME280;73293;48.538;14.354;2024-01-15T01:37:35;92193.45;;;-5.96;96.35
64211;BME280;73293;48.538;14.354;2024-01-15T01:38:10;92195.73;;;-5.95;96.58
64211;BME280;73293;48.538;14.354;2024-01-15T01:38:44;92196.23;;;-5.91;96.31
64211;BME280;73293;48.538;14.354;2024-01-15T01:39:35;92201.70;;;-5.84;95.67
64211;BME280;73293;48.538;14.354;2024-01-15T01:40:11;92199.73;;;-5.91;95.19
64211;BME280;73293;48.538;14.354;2024-01-15T01:40:45;92198.54;;;-5.93;95.60
64211;BME280;73293;48.538;14.354;2024-01-15T01:41:19;92203.39;;;-5.91;95.81
64211;BME280;73293;48.538;14.354;2024-01-15T01:41:53;92202.25;;;-5.88;95.93
64211;BME280;73293;48.538;14.354;2024-01-15T01:42:27;92198.33;;;-5.90;96.29
64211;BME280;73293;48.538;14.354;2024-01-15T01:43:19;92198.88;;;-5.81;96.37
64211;BME280;73293;48.538;14.354;2024-01-15T01:43:53;92197.66;;;-5.81;96.47
64211;BME280;73293;48.538;14.354;2024-01-15T01:44:27;92199.94;;;-5.78;96.28
64211;BME280;73293;48.538;14.354;2024-01-15T01:45:01;92198.35;;;-5.79;96.09
64211;BME280;73293;48.538;14.354;2024-01-15T01:45:35;92199.40;;;-5.81;96.26
64211;BME280;73293;48.538;14.354;2024-01-15T01:46:09;92200.45;;;-5.81;95.96
64211;BME280;73293;48.538;14.354;2024-01-15T01:46:55;92195.84;;;-5.76;95.96
64211;BME280;73293;48.538;14.354;2024-01-15T01:47:29;92198.14;;;-5.72;95.91
64211;BME280;73293;48.538;14.354;2024-01-15T01:48:03;92195.05;;;-5.72;95.85
64211;BME280;73293;48.538;14.354;2024-01-15T01:48:37;92200.48;;;-5.71;95.55
64211;BME280;73293;48.538;14.354;2024-01-15T01:49:12;92200.19;;;-5.73;95.94
64211;BME280;73293;48.538;14.354;2024-01-15T01:49:46;92200.93;;;-5.74;96.02
64211;BME280;73293;48.538;14.354;2024-01-15T01:50:35;92199.45;;;-5.70;96.34
64211;BME280;73293;48.538;14.354;2024-01-15T01:51:09;92200.71;;;-5.72;96.29
64211;BME280;73293;48.538;14.354;2024-01-15T01:51:45;92206.55;;;-5.68;96.56
64211;BME280;73293;48.538;14.354;2024-01-15T01:52:20;92205.17;;;-5.67;95.87
64211;BME280;73293;48.538;14.354;2024-01-15T01:52:54;92202.47;;;-5.67;95.62
64211;BME280;73293;48.538;14.354;2024-01-15T01:53:28;92198.17;;;-5.74;95.80
64211;BME280;73293;48.538;14.354;2024-01-15T01:54:19;92199.77;;;-5.67;95.89
64211;BME280;73293;48.538;14.354;2024-01-15T01:54:53;92201.79;;;-5.68;96.13
64211;BME280;73293;48.538;14.354;2024-01-15T01:55:28;92200.44;;;-5.69;96.48
64211;BME280;73293;48.538;14.354;2024-01-15T01:56:04;92195.83;;;-5.66;96.67
64211;BME280;73293;48.538;14.354;2024-01-15T01:56:38;92198.13;;;-5.61;96.60
64211;BME280;73293;48.538;14.354;2024-01-15T01:57:12;92193.05;;;-5.60;96.47
64211;BME280;73293;48.538;14.354;2024-01-15T01:58:00;92194.17;;;-5.60;96.53
64211;BME280;73293;48.538;14.354;2024-01-15T01:58:33;92182.05;;;-5.61;96.78
64211;BME280;73293;48.538;14.354;2024-01-15T01:59:07;92187.27;;;-5.57;97.04
64211;BME280;73293;48.538;14.354;2024-01-15T01:59:43;92180.58;;;-5.55;96.95
64211;BME280;73293;48.538;14.354;2024-01-15T02:00:17;92187.63;;;-5.49;96.92
64211;BME280;73293;48.538;14.354;2024-01-15T02:00:52;92184.60;;;-5.43;96.76
64211;BME280;73293;48.538;14.354;2024-01-15T02:01:41;92184.14;;;-5.43;96.32
64211;BME280;73293;48.538;14.354;2024-01-15T02:02:15;92186.64;;;-5.46;96.54
64211;BME280;73293;48.538;14.354;2024-01-15T02:02:53;92185.70;;;-5.49;96.46
64211;BME280;73293;48.538;14.354;2024-01-15T02:03:27;92185.16;;;-5.49;96.36
64211;BME280;73293;48.538;14.354;2024-01-15T02:04:02;92191.23;;;-5.43;96.80
64211;BME280;73293;48.538;14.354;2024-01-15T02:04:37;92186.89;;;-5.45;96.42
64211;BME280;73293;48.538;14.354;2024-01-15T02:05:19;92187.61;;;-5.43;96.71
64211;BME280;73293;48.538;14.354;2024-01-15T02:05:56;92190.21;;;-5.39;96.96
64211;BME280;73293;48.538;14.354;2024-01-15T02:06:33;92191.41;;;-5.36;97.17
64211;BME280;73293;48.538;14.354;2024-01-15T02:07:07;92193.14;;;-5.35;96.81
64211;BME280;73293;48.538;14.354;2024-01-15T02:07:43;92188.34;;;-5.36;96.51
64211;BME280;73293;48.538;14.354;2024-01-15T02:08:17;92193.73;;;-5.36;96.79
64211;BME280;73293;48.538;14.354;2024-01-15T02:09:03;92189.77;;;-5.30;96.97
64211;BME280;73293;48.538;14.354;2024-01-15T02:09:38;92193.80;;;-5.29;97.08
64211;BME280;73293;48.538;14.354;2024-01-15T02:10:13;92197.20;;;-5.26;96.78
64211;BME280;73293;48.538;14.354;2024-01-15T02:10:46;92193.34;;;-5.24;97.11
64211;BME280;73293;48.538;14.354;2024-01-15T02:11:20;92195.30;;;-5.22;97.37
64211;BME280;73293;48.538;14.354;2024-01-15T02:11:54;92199.67;;;-5.19;97.15
64211;BME280;73293;48.538;14.354;2024-01-15T02:12:46;92200.11;;;-5.16;96.49
64211;BME280;73293;48.538;14.354;2024-01-15T02:13:25;92196.75;;;-5.19;96.57
64211;BME280;73293;48.538;14.354;2024-01-15T02:14:01;92198.36;;;-5.21;96.22
64211;BME280;73293;48.538;14.354;2024-01-15T02:14:37;92191.16;;;-5.27;96.09
64211;BME280;73293;48.538;14.354;2024-01-15T02:15:12;92200.23;;;-5.25;96.55
64211;BME280;73293;48.538;14.354;2024-01-15T02:16:24;92201.27;;;-5.21;96.38
64211;BME280;73293;48.538;14.354;2024-01-15T02:16:59;92201.77;;;-5.24;96.34
64211;BME280;73293;48.538;14.354;2024-01-15T02:17:33;92209.58;;;-5.23;96.48
64211;BME280;73293;48.538;14.354;2024-01-15T02:18:08;92215.33;;;-5.21;96.53
64211;BME280;73293;48.538;14.354;2024-01-15T02:18:42;92221.88;;;-5.18;96.52
64211;BME280;73293;48.538;14.354;2024-01-15T02:19:17;92226.10;;;-5.19;96.32
64211;BME280;73293;48.538;14.354;2024-01-15T02:20:04;92228.83;;;-5.17;96.29
64211;BME280;73293;48.538;14.354;2024-01-15T02:20:39;92231.40;;;-5.21;96.33
64211;BME280;73293;48.538;14.354;2024-01-15T02:21:12;92230.02;;;-5.23;96.44
64211;BME280;73293;48.538;14.354;2024-01-15T02:21:48;92232.81;;;-5.25;96.45
64211;BME280;73293;48.538;14.354;2024-01-15T02:22:22;92234.55;;;-5.22;96.38
64211;BME280;73293;48.538;14.354;2024-01-15T02:23:44;92234.23;;;-5.18;96.64
64211;BME280;73293;48.538;14.354;2024-01-15T02:24:18;92234.97;;;-5.12;96.11
64211;BME280;73293;48.538;14.354;2024-01-15T02:24:52;92233.75;;;-5.18;96.06
64211;BME280;73293;48.538;14.354;2024-01-15T02:25:28;92232.06;;;-5.23;96.11
64211;BME280;73293;48.538;14.354;2024-01-15T02:26:02;92224.27;;;-5.25;96.28
64211;BME280;73293;48.538;14.354;2024-01-15T02:26:38;92220.20;;;-5.26;96.22
64211;BME280;73293;48.538;14.354;2024-01-15T02:27:26;92221.11;;;-5.20;96.38
64211;BME280;73293;48.538;14.354;2024-01-15T02:28:00;92220.02;;;-5.22;96.48
64211;BME280;73293;48.538;14.354;2024-01-15T02:28:34;92221.52;;;-5.22;96.53
64211;BME280;73293;48.538;14.354;2024-01-15T02:29:09;92222.19;;;-5.20;96.43
64211;BME280;73293;48.538;14.354;2024-01-15T02:29:44;92218.80;;;-5.20;96.21
64211;BME280;73293;48.538;14.354;2024-01-15T02:30:18;92219.73;;;-5.22;95.96
64211;BME280;73293;48.538;14.354;2024-01-15T02:31:08;92217.82;;;-5.18;95.91
64211;BME280;73293;48.538;14.354;2024-01-15T02:31:42;92212.02;;;-5.22;95.66
64211;BME280;73293;48.538;14.354;2024-01-15T02:32:16;92212.77;;;-5.25;94.96
64211;BME280;73293;48.538;14.354;2024-01-15T02:32:50;92210.45;;;-5.33;94.80
64211;BME280;73293;48.538;14.354;2024-01-15T02:33:25;92211.84;;;-5.31;95.00
64211;BME280;73293;48.538;14.354;2024-01-15T02:33:59;92206.80;;;-5.29;95.31
64211;BME280;73293;48.538;14.354;2024-01-15T02:34:50;92205.44;;;-5.24;95.11
64211;BME280;73293;48.538;14.354;2024-01-15T02:35:24;92198.87;;;-5.31;94.71
64211;BME280;73293;48.538;14.354;2024-01-15T02:35:58;92204.69;;;-5.34;93.98
64211;BME280;73293;48.538;14.354;2024-01-15T02:36:34;92197.89;;;-5.42;94.37
64211;BME280;73293;48.538;14.354;2024-01-15T02:37:08;92206.79;;;-5.32;95.00
64211;BME280;73293;48.538;14.354;2024-01-15T02:37:42;92205.69;;;-5.30;95.26
64211;BME280;73293;48.538;14.354;2024-01-15T02:38:32;92205.55;;;-5.25;95.59
64211;BME280;73293;48.538;14.354;2024-01-15T02:39:06;92204.11;;;-5.20;95.41
64211;BME280;73293;48.538;14.354;2024-01-15T02:39:40;92204.52;;;-5.21;95.23
64211;BME280;73293;48.538;14.354;2024-01-15T02:40:15;92200.17;;;-5.16;95.02
64211;BME280;73293;48.538;14.354;2024-01-15T02:40:52;92202.36;;;-5.15;94.93
64211;BME280;73293;48.538;14.354;2024-01-15T02:41:26;92198.26;;;-5.12;94.90
64211;BME280;73293;48.538;14.354;2024-01-15T02:42:14;92199.20;;;-5.09;95.02
64211;BME280;73293;48.538;14.354;2024-01-15T02:42:48;92205.90;;;-5.12;95.20
64211;BME280;73293;48.538;14.354;2024-01-15T02:43:23;92205.41;;;-5.04;95.39
64211;BME280;73293;48.538;14.354;2024-01-15T02:43:58;92207.31;;;-4.99;95.46
64211;BME280;73293;48.538;14.354;2024-01-15T02:44:32;92205.89;;;-5.00;95.26
64211;BME280;73293;48.538;14.354;2024-01-15T02:45:07;92205.27;;;-4.98;95.13
64211;BME280;73293;48.538;14.354;2024-01-15T02:45:57;92205.54;;;-4.87;95.06
64211;BME280;73293;48.538;14.354;2024-01-15T02:46:31;92206.79;;;-4.76;94.52
64211;BME280;73293;48.538;14.354;2024-01-15T02:47:05;92210.54;;;-4.72;94.05
64211;BME280;73293;48.538;14.354;2024-01-15T02:47:40;92207.46;;;-4.73;94.05
64211;BME280;73293;48.538;14.354;2024-01-15T02:48:14;92211.23;;;-4.67;93.81
64211;BME280;73293;48.538;14.354;2024-01-15T02:48:49;92201.94;;;-4.69;93.87
64211;BME280;73293;48.538;14.354;2024-01-15T02:49:39;92205.65;;;-4.54;93.51
64211;BME280;73293;48.538;14.354;2024-01-15T02:50:13;92206.31;;;-4.68;93.65
64211;BME280;73293;48.538;14.354;2024-01-15T02:50:48;92211.58;;;-4.61;93.85
64211;BME280;73293;48.538;14.354;2024-01-15T02:51:22;92198.21;;;-4.61;93.98
64211;BME280;73293;48.538;14.354;2024-01-15T02:51:58;92208.11;;;-4.55;93.64
64211;BME280;73293;48.538;14.354;2024-01-15T02:52:32;92207.64;;;-4.40;93.01
64211;BME280;73293;48.538;14.354;2024-01-15T02:53:19;92207.37;;;-4.43;93.15
64211;BME280;73293;48.538;14.354;2024-01-15T02:53:53;92204.91;;;-4.48;93.43
64211;BME280;73293;48.538;14.354;2024-01-15T02:54:28;92202.47;;;-4.47;93.61
64211;BME280;73293;48.538;14.354;2024-01-15T02:55:01;92201.20;;;-4.45;93.59
64211;BME280;73293;48.538;14.354;2024-01-15T02:55:35;92200.82;;;-4.49;93.79
64211;BME280;73293;48.538;14.354;2024-01-15T02:56:09;92200.64;;;-4.48;93.74
64211;BME280;73293;48.538;14.354;2024-01-15T02:57:01;92201.88;;;-4.40;93.43
64211;BME280;73293;48.538;14.354;2024-01-15T02:57:35;92209.89;;;-4.32;93.03
64211;BME280;73293;48.538;14.354;2024-01-15T02:58:09;92194.85;;;-4.32;92.55
64211;BME280;73293;48.538;14.354;2024-01-15T02:58:44;92209.02;;;-4.29;92.52
64211;BME280;73293;48.538;14.354;2024-01-15T02:59:18;92213.09;;;-4.32;92.68
64211;BME280;73293;48.538;14.354;2024-01-15T02:59:51;92207.98;;;-4.36;92.75
64211;BME280;73293;48.538;14.354;2024-01-15T03:02:59;92213.00;;;-4.40;92.94
64211;BME280;73293;48.538;14.354;2024-01-15T03:03:34;92227.88;;;-4.34;93.29
64211;BME280;73293;48.538;14.354;2024-01-15T03:04:09;92235.45;;;-4.30;93.18
64211;BME280;73293;48.538;14.354;2024-01-15T03:04:44;92239.91;;;-4.29;93.17
64211;BME280;73293;48.538;14.354;2024-01-15T03:05:31;92242.13;;;-4.26;93.33
64211;BME280;73293;48.538;14.354;2024-01-15T03:06:05;92238.77;;;-4.27;93.11
64211;BME280;73293;48.538;14.354;2024-01-15T03:06:54;92254.20;;;-4.31;93.53
64211;BME280;73293;48.538;14.354;2024-01-15T03:07:31;92242.90;;;-4.31;93.35
64211;BME280;73293;48.538;14.354;2024-01-15T03:08:07;92257.15;;;-4.30;93.56
64211;BME280;73293;48.538;14.354;2024-01-15T03:09:17;92250.77;;;-4.23;93.26
64211;BME280;73293;48.538;14.354;2024-01-15T03:09:52;92252.95;;;-4.27;93.17
64211;BME280;73293;48.538;14.354;2024-01-15T03:10:27;92254.23;;;-4.26;93.27
64211;BME280;73293;48.538;14.354;2024-01-15T03:11:04;92243.63;;;-4.28;93.33
64211;BME280;73293;48.538;14.354;2024-01-15T03:11:42;92255.98;;;-4.25;93.47
64211;BME280;73293;48.538;14.354;2024-01-15T03:12:55;92250.26;;;-4.23;93.40
64211;BME280;73293;48.538;14.354;2024-01-15T03:13:31;92263.52;;;-4.22;93.31
64211;BME280;73293;48.538;14.354;2024-01-15T03:14:10;92264.78;;;-4.26;93.35
64211;BME280;73293;48.538;14.354;2024-01-15T03:14:45;92262.77;;;-4.35;93.57
64211;BME280;73293;48.538;14.354;2024-01-15T03:15:21;92261.29;;;-4.38;94.03
64211;BME280;73293;48.538;14.354;2024-01-15T03:16:33;92258.96;;;-4.24;93.65
64211;BME280;73293;48.538;14.354;2024-01-15T03:17:08;92260.39;;;-4.33;93.79
64211;BME280;73293;48.538;14.354;2024-01-15T03:17:44;92264.65;;;-4.30;93.87
64211;BME280;73293;48.538;14.354;2024-01-15T03:18:21;92268.11;;;-4.34;93.99
64211;BME280;73293;48.538;14.354;2024-01-15T03:18:58;92274.78;;;-4.34;94.10
64211;BME280;73293;48.538;14.354;2024-01-15T03:20:11;92276.71;;;-4.31;94.18